createdAt,value
2018-06-20T00:00:01.165Z,17.95
2018-06-20T00:01:01.148Z,17.89
2018-06-20T00:02:01.137Z,17.85
2018-06-20T00:03:01.139Z,17.89
2018-06-20T00:04:01.135Z,17.97
2018-06-20T00:05:01.132Z,17.88
2018-06-20T00:06:01.134Z,17.89
2018-06-20T00:07:01.122Z,17.97
2018-06-20T00:08:01.117Z,17.88
2018-06-20T00:09:01.118Z,17.95
2018-06-20T00:10:01.116Z,17.91
2018-06-20T00:11:01.134Z,17.88
2018-06-20T00:12:01.129Z,18.03
2018-06-20T00:13:01.117Z,17.94
2018-06-20T00:14:01.104Z,17.91
2018-06-20T00:15:01.098Z,17.92
2018-06-20T00:16:01.099Z,17.92
2018-06-20T00:17:01.098Z,17.91
2018-06-20T00:18:01.089Z,17.92
2018-06-20T00:19:01.087Z,17.95
2018-06-20T00:20:01.089Z,17.99
2018-06-20T00:21:01.086Z,17.94
2018-06-20T00:22:01.093Z,17.89
2018-06-20T00:23:01.076Z,17.85
2018-06-20T00:24:01.220Z,17.82
2018-06-20T00:25:01.061Z,17.74
2018-06-20T00:26:01.071Z,17.74
2018-06-20T00:27:01.065Z,17.78
2018-06-20T00:28:01.061Z,17.71
2018-06-20T00:29:01.073Z,17.73
2018-06-20T00:30:01.072Z,17.79
2018-06-20T00:31:01.056Z,17.87
2018-06-20T00:32:01.054Z,17.76
2018-06-20T00:33:01.047Z,17.74
2018-06-20T00:34:01.048Z,17.82
2018-06-20T00:35:01.038Z,17.87
2018-06-20T00:36:01.046Z,17.85
2018-06-20T00:37:01.034Z,17.74
2018-06-20T00:38:01.035Z,17.74
2018-06-20T00:39:01.031Z,17.74
2018-06-20T00:40:01.024Z,17.73
2018-06-20T00:41:01.019Z,17.78
2018-06-20T00:42:01.016Z,17.71
2018-06-20T00:43:01.043Z,17.67
2018-06-20T00:44:01.010Z,17.67
2018-06-20T00:45:01.012Z,17.69
2018-06-20T00:46:01.016Z,17.51
2018-06-20T00:47:01.001Z,17.48
2018-06-20T00:48:01.012Z,17.46
2018-06-20T00:49:00.998Z,17.26
2018-06-20T00:50:00.990Z,17.18
2018-06-20T00:51:00.990Z,17.07
2018-06-20T00:52:00.995Z,17.00
2018-06-20T00:53:00.989Z,16.95
2018-06-20T00:54:00.981Z,16.88
2018-06-20T00:55:00.971Z,16.80
2018-06-20T00:56:00.970Z,16.83
2018-06-20T00:57:00.975Z,16.73
2018-06-20T00:58:00.967Z,16.73
2018-06-20T00:59:01.019Z,16.73
2018-06-20T01:00:00.996Z,16.68
2018-06-20T01:01:00.999Z,16.70
2018-06-20T01:02:01.056Z,16.62
2018-06-20T01:03:00.957Z,16.67
2018-06-20T01:04:00.948Z,16.70
2018-06-20T01:05:00.945Z,16.53
2018-06-20T01:06:00.942Z,16.56
2018-06-20T01:07:00.941Z,16.58
2018-06-20T01:08:00.938Z,16.67
2018-06-20T01:09:00.948Z,16.71
2018-06-20T01:10:00.951Z,16.80
2018-06-20T01:11:00.945Z,16.75
2018-06-20T01:12:00.920Z,16.83
2018-06-20T01:13:00.933Z,16.81
2018-06-20T01:14:00.916Z,16.93
2018-06-20T01:15:00.912Z,17.06
2018-06-20T01:16:00.925Z,17.07
2018-06-20T01:17:00.900Z,17.08
2018-06-20T01:18:00.891Z,17.07
2018-06-20T01:19:00.922Z,17.17
2018-06-20T01:20:00.897Z,17.13
2018-06-20T01:21:00.893Z,17.13
2018-06-20T01:22:00.879Z,17.15
2018-06-20T01:23:00.904Z,17.15
2018-06-20T01:24:00.884Z,17.20
2018-06-20T01:25:00.879Z,17.23
2018-06-20T01:26:00.872Z,17.30
2018-06-20T01:27:00.884Z,17.28
2018-06-20T01:28:00.863Z,17.25
2018-06-20T01:29:00.862Z,17.29
2018-06-20T01:30:00.858Z,17.44
2018-06-20T02:04:33.747Z,16.23
2018-06-20T02:05:33.706Z,16.15
2018-06-20T02:07:26.701Z,16.23
2018-06-20T02:08:26.661Z,16.20
2018-06-20T02:10:19.590Z,16.11
2018-06-20T02:11:19.549Z,16.07
2018-06-20T02:12:19.555Z,15.99
2018-06-20T02:13:19.542Z,15.96
2018-06-20T02:14:19.534Z,16.06
2018-06-20T02:15:19.521Z,16.01
2018-06-20T02:16:19.545Z,15.97
2018-06-20T02:17:19.520Z,15.99
2018-06-20T02:18:19.517Z,15.93
2018-06-20T02:19:19.514Z,15.85
2018-06-20T02:20:19.508Z,15.92
2018-06-20T02:21:19.511Z,15.78
2018-06-20T02:22:19.489Z,15.79
2018-06-20T02:23:19.499Z,15.75
2018-06-20T02:24:19.585Z,15.84
2018-06-20T02:25:19.482Z,15.76
2018-06-20T02:26:19.499Z,15.78
2018-06-20T02:27:19.485Z,15.79
2018-06-20T02:28:19.507Z,15.92
2018-06-20T02:29:19.474Z,15.92
2018-06-20T02:30:19.475Z,15.89
2018-06-20T02:31:19.459Z,15.88
2018-06-20T02:32:19.467Z,15.92
2018-06-20T02:33:19.461Z,15.94
2018-06-20T02:34:19.456Z,15.92
2018-06-20T02:35:19.455Z,15.93
2018-06-20T02:36:19.464Z,15.94
2018-06-20T02:37:19.477Z,15.92
2018-06-20T02:38:19.446Z,15.92
2018-06-20T02:39:19.438Z,15.93
2018-06-20T02:40:19.471Z,15.86
2018-06-20T02:41:19.443Z,15.92
2018-06-20T02:42:19.419Z,15.79
2018-06-20T02:43:19.430Z,15.72
2018-06-20T02:44:19.416Z,15.66
2018-06-20T02:45:19.436Z,15.72
2018-06-20T02:46:19.413Z,15.68
2018-06-20T02:47:19.406Z,15.67
2018-06-20T02:48:19.417Z,15.75
2018-06-20T02:49:19.393Z,15.66
2018-06-20T02:50:19.395Z,15.72
2018-06-20T02:51:19.387Z,15.64
2018-06-20T02:52:19.391Z,15.74
2018-06-20T02:53:19.382Z,15.72
2018-06-20T02:54:19.374Z,15.68
2018-06-20T02:55:19.396Z,15.64
2018-06-20T02:56:19.383Z,15.54
2018-06-20T02:57:19.390Z,15.56
2018-06-20T02:58:19.374Z,15.46
2018-06-20T02:59:19.376Z,15.45
2018-06-20T03:00:19.353Z,15.45
2018-06-20T03:01:19.362Z,15.48
2018-06-20T03:02:19.346Z,15.46
2018-06-20T03:03:19.356Z,15.54
2018-06-20T03:04:19.372Z,15.39
2018-06-20T03:05:19.345Z,15.54
2018-06-20T03:06:19.348Z,15.43
2018-06-20T03:07:19.337Z,15.48
2018-06-20T03:08:19.335Z,15.43
2018-06-20T03:09:19.324Z,15.43
2018-06-20T03:10:19.333Z,15.33
2018-06-20T03:11:19.318Z,15.41
2018-06-20T03:12:19.319Z,15.36
2018-06-20T03:13:19.315Z,15.36
2018-06-20T03:14:19.300Z,15.36
2018-06-20T03:15:19.307Z,15.31
2018-06-20T03:16:19.300Z,15.31
2018-06-20T03:17:19.297Z,15.36
2018-06-20T03:18:19.291Z,15.46
2018-06-20T03:19:19.287Z,15.45
2018-06-20T03:20:19.290Z,15.48
2018-06-20T03:21:19.279Z,15.36
2018-06-20T03:22:19.275Z,15.49
2018-06-20T03:23:19.268Z,15.46
2018-06-20T03:24:19.269Z,15.46
2018-06-20T03:25:19.274Z,15.49
2018-06-20T03:26:19.262Z,15.48
2018-06-20T03:27:19.323Z,15.52
2018-06-20T03:28:19.252Z,15.61
2018-06-20T03:29:19.253Z,15.72
2018-06-20T03:30:19.245Z,15.70
2018-06-20T03:31:19.245Z,15.64
2018-06-20T03:32:19.245Z,15.78
2018-06-20T03:33:19.234Z,15.85
2018-06-20T03:34:19.232Z,15.94
2018-06-20T03:35:19.231Z,16.01
2018-06-20T03:36:19.224Z,15.92
2018-06-20T03:37:19.225Z,16.04
2018-06-20T03:38:19.219Z,16.04
2018-06-20T03:39:19.255Z,16.12
2018-06-20T03:40:19.218Z,16.35
2018-06-20T03:41:19.211Z,16.42
2018-06-20T03:42:19.205Z,16.55
2018-06-20T03:43:19.199Z,16.56
2018-06-20T03:44:19.197Z,16.62
2018-06-20T03:45:19.194Z,16.77
2018-06-20T03:46:19.188Z,16.73
2018-06-20T03:47:19.188Z,16.85
2018-06-20T03:48:19.192Z,16.90
2018-06-20T03:49:19.181Z,17.06
2018-06-20T03:50:19.178Z,17.04
2018-06-20T03:51:19.175Z,17.13
2018-06-20T03:52:19.169Z,17.14
2018-06-20T03:53:19.169Z,17.17
2018-06-20T03:54:19.264Z,17.22
2018-06-20T03:55:19.160Z,17.26
2018-06-20T03:56:19.163Z,17.29
2018-06-20T03:57:19.156Z,17.43
2018-06-20T03:58:19.149Z,17.40
2018-06-20T03:59:19.177Z,17.47
2018-06-20T04:00:19.145Z,17.62
2018-06-20T04:01:19.141Z,17.67
2018-06-20T04:02:19.182Z,17.50
2018-06-20T04:03:19.215Z,17.59
2018-06-20T04:04:19.128Z,17.62
2018-06-20T04:05:19.127Z,17.59
2018-06-20T04:06:19.124Z,17.64
2018-06-20T04:07:19.129Z,17.71
2018-06-20T04:08:19.127Z,17.78
2018-06-20T04:09:19.118Z,17.76
2018-06-20T04:10:19.118Z,17.78
2018-06-20T04:11:19.112Z,17.74
2018-06-20T04:12:19.110Z,17.74
2018-06-20T04:13:19.104Z,17.78
2018-06-20T04:14:19.176Z,17.79
2018-06-20T04:15:19.099Z,17.79
2018-06-20T04:16:19.119Z,17.74
2018-06-20T04:17:19.100Z,17.85
2018-06-20T04:18:19.132Z,17.82
2018-06-20T04:19:19.088Z,17.91
2018-06-20T04:20:19.085Z,17.89
2018-06-20T04:21:19.082Z,17.79
2018-06-20T04:22:19.083Z,17.79
2018-06-20T04:23:19.072Z,17.85
2018-06-20T04:24:19.117Z,17.91
2018-06-20T04:25:19.084Z,17.95
2018-06-20T04:26:19.069Z,17.89
2018-06-20T04:27:19.074Z,17.97
2018-06-20T04:28:19.065Z,18.03
2018-06-20T04:29:19.059Z,18.07
2018-06-20T04:30:19.060Z,18.07
2018-06-20T04:31:19.057Z,18.13
2018-06-20T04:32:19.053Z,18.22
2018-06-20T04:33:19.055Z,18.24
2018-06-20T04:34:19.059Z,18.18
2018-06-20T04:35:19.060Z,18.24
2018-06-20T04:36:19.048Z,18.28
2018-06-20T04:37:19.064Z,18.44
2018-06-20T04:38:19.067Z,18.34
2018-06-20T04:39:19.053Z,18.44
2018-06-20T04:40:19.054Z,18.39
2018-06-20T04:41:19.095Z,18.54
2018-06-20T04:42:19.042Z,18.49
2018-06-20T04:43:19.089Z,18.54
2018-06-20T04:44:19.061Z,18.52
2018-06-20T04:45:19.068Z,18.47
2018-06-20T04:46:19.037Z,18.64
2018-06-20T04:47:19.030Z,18.59
2018-06-20T04:48:19.111Z,18.54
2018-06-20T04:49:19.063Z,18.44
2018-06-20T04:50:19.024Z,18.64
2018-06-20T04:51:19.033Z,18.59
2018-06-20T04:52:19.026Z,18.73
2018-06-20T04:53:19.013Z,18.74
2018-06-20T04:54:19.040Z,18.76
2018-06-20T04:55:19.020Z,18.64
2018-06-20T04:56:19.016Z,18.83
2018-06-20T04:57:19.000Z,18.84
2018-06-20T04:58:18.997Z,18.72
2018-06-20T04:59:19.025Z,18.74
2018-06-20T05:00:18.992Z,18.68
2018-06-20T05:01:18.987Z,18.72
2018-06-20T05:02:18.983Z,18.80
2018-06-20T05:03:18.986Z,18.91
2018-06-20T05:04:19.060Z,18.95
2018-06-20T05:05:18.980Z,18.83
2018-06-20T05:06:18.989Z,19.01
2018-06-20T05:07:18.975Z,18.97
2018-06-20T05:08:18.972Z,18.97
2018-06-20T05:09:18.971Z,19.01
2018-06-20T05:10:18.995Z,19.08
2018-06-20T05:11:18.968Z,19.17
2018-06-20T05:12:18.968Z,19.23
2018-06-20T05:13:18.962Z,19.25
2018-06-20T05:14:18.984Z,19.14
2018-06-20T05:15:18.976Z,19.15
2018-06-20T05:16:18.959Z,19.24
2018-06-20T05:17:18.953Z,19.23
2018-06-20T05:18:18.996Z,19.24
2018-06-20T05:19:18.948Z,19.24
2018-06-20T05:20:18.964Z,19.33
2018-06-20T05:21:18.990Z,19.31
2018-06-20T05:22:18.942Z,19.25
2018-06-20T05:23:18.962Z,19.36
2018-06-20T05:24:18.930Z,19.40
2018-06-20T05:25:18.938Z,19.48
2018-06-20T05:26:18.937Z,19.46
2018-06-20T05:27:18.954Z,19.36
2018-06-20T05:28:18.944Z,19.40
2018-06-20T05:29:18.931Z,19.42
2018-06-20T05:30:18.934Z,19.63
2018-06-20T05:31:18.922Z,19.75
2018-06-20T05:32:18.931Z,19.72
2018-06-20T05:33:18.972Z,19.70
2018-06-20T05:34:18.922Z,19.65
2018-06-20T05:35:18.921Z,19.66
2018-06-20T05:36:18.919Z,19.88
2018-06-20T05:37:18.918Z,19.84
2018-06-20T05:38:18.909Z,19.91
2018-06-20T05:39:18.915Z,19.90
2018-06-20T05:40:18.948Z,19.98
2018-06-20T05:41:18.912Z,19.97
2018-06-20T05:42:18.911Z,20.06
2018-06-20T05:43:18.911Z,20.03
2018-06-20T05:44:18.910Z,20.10
2018-06-20T05:45:18.908Z,20.06
2018-06-20T05:46:18.909Z,20.05
2018-06-20T05:47:18.928Z,20.16
2018-06-20T05:48:18.919Z,20.20
2018-06-20T05:49:18.904Z,20.20
2018-06-20T05:50:18.902Z,20.10
2018-06-20T05:51:18.903Z,20.16
2018-06-20T05:52:18.919Z,20.30
2018-06-20T05:53:18.900Z,20.27
2018-06-20T05:54:18.907Z,20.12
2018-06-20T05:55:18.899Z,20.34
2018-06-20T05:56:18.896Z,20.46
2018-06-20T05:57:18.891Z,20.47
2018-06-20T05:58:18.892Z,20.31
2018-06-20T05:59:18.892Z,20.43
2018-06-20T06:00:18.898Z,20.38
2018-06-20T06:01:18.889Z,20.54
2018-06-20T06:02:18.890Z,20.66
2018-06-20T06:03:18.891Z,20.71
2018-06-20T06:04:18.916Z,20.74
2018-06-20T06:05:18.951Z,20.64
2018-06-20T06:06:18.893Z,20.50
2018-06-20T06:07:18.885Z,20.62
2018-06-20T06:08:18.892Z,20.71
2018-06-20T06:09:18.891Z,20.64
2018-06-20T06:10:18.890Z,20.58
2018-06-20T06:11:18.886Z,20.72
2018-06-20T06:12:18.890Z,20.74
2018-06-20T06:13:18.890Z,20.71
2018-06-20T06:14:18.888Z,20.79
2018-06-20T06:15:18.898Z,20.98
2018-06-20T06:16:18.906Z,20.90
2018-06-20T06:17:18.886Z,20.87
2018-06-20T06:18:18.886Z,20.80
2018-06-20T06:19:18.886Z,20.95
2018-06-20T06:20:18.886Z,21.14
2018-06-20T06:21:18.883Z,21.32
2018-06-20T06:22:18.875Z,21.26
2018-06-20T06:23:18.900Z,21.46
2018-06-20T06:24:18.877Z,21.61
2018-06-20T06:25:18.879Z,21.75
2018-06-20T06:26:18.882Z,22.01
2018-06-20T06:27:18.875Z,22.23
2018-06-20T06:28:18.873Z,22.10
2018-06-20T06:29:18.883Z,21.83
2018-06-20T06:30:18.882Z,21.88
2018-06-20T06:31:18.879Z,22.02
2018-06-20T06:32:18.880Z,22.13
2018-06-20T06:33:18.876Z,22.37
2018-06-20T06:34:18.878Z,22.50
2018-06-20T06:35:18.883Z,22.31
2018-06-20T06:36:18.878Z,22.54
2018-06-20T06:37:18.887Z,22.46
2018-06-20T06:38:18.875Z,22.67
2018-06-20T06:39:18.877Z,22.28
2018-06-20T06:40:18.880Z,22.52
2018-06-20T06:41:18.882Z,22.28
2018-06-20T06:42:18.880Z,22.28
2018-06-20T06:43:18.879Z,22.52
2018-06-20T06:44:18.887Z,22.65
2018-06-20T06:45:18.884Z,22.84
2018-06-20T06:46:18.881Z,23.14
2018-06-20T06:47:18.882Z,23.20
2018-06-20T06:48:18.885Z,23.20
2018-06-20T06:49:18.886Z,22.71
2018-06-20T06:50:18.888Z,22.94
2018-06-20T06:51:18.883Z,22.97
2018-06-20T06:52:18.888Z,23.15
2018-06-20T06:53:18.887Z,22.64
2018-06-20T06:54:18.889Z,23.07
2018-06-20T06:55:18.887Z,23.31
2018-06-20T06:56:18.887Z,23.46
2018-06-20T06:57:18.889Z,23.65
2018-06-20T06:58:18.888Z,23.94
2018-06-20T06:59:18.893Z,24.07
2018-06-20T07:00:18.899Z,24.64
2018-06-20T07:01:18.892Z,25.25
2018-06-20T07:02:18.894Z,25.35
2018-06-20T07:03:18.895Z,25.80
2018-06-20T07:04:18.902Z,26.35
2018-06-20T07:05:18.901Z,26.05
2018-06-20T07:06:18.900Z,26.20
2018-06-20T07:07:18.903Z,26.21
2018-06-20T07:08:18.906Z,25.56
2018-06-20T07:09:18.937Z,25.71
2018-06-20T07:10:18.919Z,25.80
2018-06-20T07:11:18.922Z,25.94
2018-06-20T07:12:18.931Z,26.64
2018-06-20T07:13:18.937Z,26.57
2018-06-20T07:14:18.954Z,26.68
2018-06-20T07:15:18.955Z,25.94
2018-06-20T07:16:18.960Z,26.69
2018-06-20T07:17:18.972Z,26.42
2018-06-20T07:18:18.975Z,27.21
2018-06-20T07:19:18.989Z,27.85
2018-06-20T07:20:19.000Z,28.06
2018-06-20T07:21:19.007Z,27.95
2018-06-20T07:22:19.044Z,27.86
2018-06-20T07:23:19.074Z,27.67
2018-06-20T07:24:19.113Z,27.43
2018-06-20T07:25:19.051Z,27.21
2018-06-20T07:26:19.065Z,26.72
2018-06-20T07:27:19.078Z,27.67
2018-06-20T07:28:19.089Z,27.89
2018-06-20T07:29:19.123Z,28.17
2018-06-20T07:30:19.115Z,27.84
2018-06-20T07:31:19.122Z,26.96
2018-06-20T07:32:19.135Z,27.26
2018-06-20T07:33:19.147Z,26.73
2018-06-20T07:34:19.162Z,26.79
2018-06-20T07:35:19.183Z,27.50
2018-06-20T07:36:19.297Z,27.85
2018-06-20T07:37:19.200Z,27.88
2018-06-20T07:38:19.214Z,27.91
2018-06-20T07:39:19.228Z,28.62
2018-06-20T07:40:19.241Z,28.48
2018-06-20T07:41:19.251Z,27.79
2018-06-20T07:42:19.270Z,27.59
2018-06-20T07:43:19.282Z,28.28
2018-06-20T07:44:19.304Z,28.40
2018-06-20T07:45:19.312Z,27.76
2018-06-20T07:46:19.327Z,28.17
2018-06-20T07:47:19.338Z,28.77
2018-06-20T07:48:19.350Z,28.69
2018-06-20T07:49:19.367Z,29.15
2018-06-20T07:50:19.378Z,28.93
2018-06-20T07:51:19.395Z,28.54
2018-06-20T07:52:19.416Z,29.07
2018-06-20T07:53:19.434Z,29.04
2018-06-20T07:54:19.456Z,28.25
2018-06-20T07:55:19.478Z,27.69
2018-06-20T07:56:19.466Z,27.85
2018-06-20T07:57:19.496Z,28.50
2018-06-20T07:58:19.495Z,28.29
2018-06-20T07:59:19.510Z,28.66
2018-06-20T08:00:19.531Z,28.53
2018-06-20T08:01:19.546Z,28.31
2018-06-20T08:02:19.561Z,28.23
2018-06-20T08:03:19.576Z,28.14
2018-06-20T08:04:19.591Z,28.17
2018-06-20T08:05:19.611Z,28.04
2018-06-20T08:06:19.652Z,27.91
2018-06-20T08:07:19.637Z,27.86
2018-06-20T08:08:19.650Z,27.51
2018-06-20T08:09:19.671Z,28.46
2018-06-20T08:10:19.688Z,28.19
2018-06-20T08:11:19.700Z,27.85
2018-06-20T08:12:19.750Z,28.43
2018-06-20T08:13:19.729Z,28.32
2018-06-20T08:14:19.745Z,28.88
2018-06-20T08:15:19.763Z,28.50
2018-06-20T08:16:19.779Z,28.10
2018-06-20T08:17:19.799Z,28.54
2018-06-20T08:18:19.809Z,28.53
2018-06-20T08:19:19.825Z,28.36
2018-06-20T08:20:19.841Z,28.53
2018-06-20T08:21:19.854Z,28.68
2018-06-20T08:22:19.859Z,28.43
2018-06-20T08:23:19.887Z,29.11
2018-06-20T08:24:19.904Z,29.68
2018-06-20T08:25:19.923Z,29.50
2018-06-20T08:26:19.932Z,29.06
2018-06-20T08:27:19.950Z,28.26
2018-06-20T08:28:19.970Z,28.26
2018-06-20T08:29:19.984Z,29.04
2018-06-20T08:30:20.000Z,29.00
2018-06-20T08:31:20.015Z,29.19
2018-06-20T08:32:20.041Z,29.01
2018-06-20T08:33:20.048Z,29.19
2018-06-20T08:34:20.064Z,29.20
2018-06-20T08:35:20.091Z,29.84
2018-06-20T08:36:20.096Z,29.06
2018-06-20T08:37:20.116Z,28.29
2018-06-20T08:38:20.129Z,28.65
2018-06-20T08:39:20.152Z,29.10
2018-06-20T08:40:20.165Z,29.79
2018-06-20T08:41:20.176Z,29.49
2018-06-20T08:42:20.241Z,29.11
2018-06-20T08:43:20.223Z,29.66
2018-06-20T08:44:20.225Z,29.50
2018-06-20T08:45:20.251Z,29.28
2018-06-20T08:46:20.272Z,29.53
2018-06-20T08:47:20.296Z,29.29
2018-06-20T08:48:20.296Z,29.19
2018-06-20T08:49:20.340Z,29.35
2018-06-20T08:50:20.514Z,29.41
2018-06-20T08:51:20.540Z,29.72
2018-06-20T08:52:20.371Z,29.60
2018-06-20T08:53:20.479Z,29.81
2018-06-20T08:54:20.398Z,30.00
2018-06-20T08:55:20.440Z,29.66
2018-06-20T08:56:20.436Z,30.07
2018-06-20T08:57:20.463Z,29.77
2018-06-20T08:58:20.468Z,30.47
2018-06-20T08:59:20.481Z,30.69
2018-06-20T09:00:20.506Z,30.78
2018-06-20T09:01:20.523Z,30.46
2018-06-20T09:02:20.545Z,30.11
2018-06-20T09:03:20.556Z,30.40
2018-06-20T09:04:20.572Z,30.12
2018-06-20T09:05:20.591Z,29.19
2018-06-20T09:06:20.607Z,28.23
2018-06-20T09:07:20.626Z,28.51
2018-06-20T09:08:20.634Z,28.56
2018-06-20T09:09:20.674Z,28.22
2018-06-20T09:10:20.681Z,28.04
2018-06-20T09:11:20.697Z,28.09
2018-06-20T09:12:20.713Z,28.63
2018-06-20T09:13:20.731Z,28.97
2018-06-20T09:14:20.806Z,29.60
2018-06-20T09:15:20.762Z,29.78
2018-06-20T09:16:20.798Z,28.73
2018-06-20T09:17:20.793Z,29.41
2018-06-20T09:18:20.818Z,29.47
2018-06-20T09:19:20.837Z,29.52
2018-06-20T09:20:20.903Z,30.45
2018-06-20T09:21:20.869Z,30.24
2018-06-20T09:22:20.885Z,30.26
2018-06-20T09:23:20.908Z,30.54
2018-06-20T09:24:20.920Z,30.37
2018-06-20T09:25:20.937Z,31.28
2018-06-20T09:26:20.965Z,29.86
2018-06-20T09:27:20.973Z,29.87
2018-06-20T09:28:20.988Z,29.49
2018-06-20T09:29:21.005Z,29.43
2018-06-20T09:30:21.026Z,29.71
2018-06-20T09:31:21.044Z,30.15
2018-06-20T09:32:21.061Z,29.94
2018-06-20T09:33:21.082Z,30.52
2018-06-20T09:34:21.096Z,30.26
2018-06-20T09:35:21.121Z,30.56
2018-06-20T09:36:21.129Z,29.94
2018-06-20T09:37:21.155Z,29.65
2018-06-20T09:38:21.173Z,29.43
2018-06-20T09:39:21.181Z,30.02
2018-06-20T09:40:21.201Z,30.16
2018-06-20T09:41:21.223Z,29.47
2018-06-20T09:42:21.238Z,30.40
2018-06-20T09:43:21.253Z,29.92
2018-06-20T09:44:21.283Z,30.94
2018-06-20T09:45:21.292Z,30.50
2018-06-20T09:46:21.308Z,30.68
2018-06-20T09:47:21.333Z,30.93
2018-06-20T09:48:21.349Z,31.28
2018-06-20T09:49:21.361Z,31.35
2018-06-20T09:50:21.368Z,31.13
2018-06-20T09:51:21.430Z,30.87
2018-06-20T09:52:21.417Z,30.91
2018-06-20T09:53:21.445Z,30.47
2018-06-20T09:54:21.516Z,30.31
2018-06-20T09:55:21.467Z,30.65
2018-06-20T09:56:21.501Z,31.09
2018-06-20T09:57:21.510Z,31.31
2018-06-20T09:58:21.516Z,31.28
2018-06-20T09:59:21.544Z,31.23
2018-06-20T10:00:21.559Z,31.43
2018-06-20T10:01:21.584Z,31.21
2018-06-20T10:02:21.635Z,31.17
2018-06-20T10:03:21.613Z,31.08
2018-06-20T10:04:21.634Z,31.98
2018-06-20T10:05:21.653Z,32.13
2018-06-20T10:06:21.709Z,31.57
2018-06-20T10:07:21.688Z,30.68
2018-06-20T10:08:21.713Z,30.47
2018-06-20T10:09:21.727Z,30.49
2018-06-20T10:10:21.742Z,30.43
2018-06-20T10:11:21.773Z,30.14
2018-06-20T10:12:21.779Z,30.37
2018-06-20T10:13:21.802Z,30.14
2018-06-20T10:14:21.816Z,30.57
2018-06-20T10:15:21.845Z,30.86
2018-06-20T10:16:21.856Z,30.23
2018-06-20T10:17:21.870Z,29.97
2018-06-20T10:18:21.889Z,30.30
2018-06-20T10:19:21.905Z,30.87
2018-06-20T10:20:21.989Z,31.50
2018-06-20T10:21:21.946Z,32.15
2018-06-20T10:22:21.961Z,32.96
2018-06-20T10:23:21.979Z,32.64
2018-06-20T10:24:21.997Z,32.61
2018-06-20T10:25:22.019Z,31.58
2018-06-20T10:26:22.044Z,31.93
2018-06-20T10:27:22.053Z,31.31
2018-06-20T10:28:22.070Z,31.26
2018-06-20T10:29:22.102Z,31.05
2018-06-20T10:30:22.112Z,31.09
2018-06-20T10:31:22.128Z,30.61
2018-06-20T10:32:22.143Z,30.69
2018-06-20T10:33:22.165Z,30.57
2018-06-20T10:34:22.185Z,30.52
2018-06-20T10:35:22.198Z,30.78
2018-06-20T10:36:22.215Z,30.53
2018-06-20T10:37:22.235Z,31.08
2018-06-20T10:38:22.266Z,31.20
2018-06-20T10:39:22.274Z,31.24
2018-06-20T10:40:22.288Z,31.27
2018-06-20T10:41:22.312Z,31.68
2018-06-20T10:42:22.327Z,31.67
2018-06-20T10:43:22.349Z,31.31
2018-06-20T10:44:22.360Z,30.76
2018-06-20T10:45:22.388Z,31.36
2018-06-20T10:46:22.557Z,30.56
2018-06-20T10:47:22.425Z,31.02
2018-06-20T10:48:22.436Z,30.69
2018-06-20T10:49:22.485Z,30.65
2018-06-20T10:50:22.483Z,30.65
2018-06-20T10:51:22.486Z,30.76
2018-06-20T10:52:22.509Z,31.65
2018-06-20T10:53:22.529Z,32.48
2018-06-20T10:54:22.606Z,32.76
2018-06-20T10:55:22.562Z,33.30
2018-06-20T10:56:22.579Z,32.49
2018-06-20T10:57:22.598Z,31.27
2018-06-20T10:58:22.615Z,30.43
2018-06-20T10:59:22.634Z,30.89
2018-06-20T11:00:22.655Z,30.57
2018-06-20T11:01:22.676Z,30.90
2018-06-20T11:02:22.685Z,31.09
2018-06-20T11:03:22.705Z,31.38
2018-06-20T11:04:22.724Z,31.50
2018-06-20T11:05:22.764Z,31.73
2018-06-20T11:06:22.761Z,31.60
2018-06-20T11:07:22.777Z,31.38
2018-06-20T11:08:22.798Z,30.80
2018-06-20T11:09:22.817Z,31.17
2018-06-20T11:10:22.830Z,31.06
2018-06-20T11:11:22.849Z,30.57
2018-06-20T11:12:22.866Z,30.81
2018-06-20T11:13:22.884Z,30.62
2018-06-20T11:14:22.901Z,31.04
2018-06-20T11:15:22.932Z,30.96
2018-06-20T11:16:22.944Z,31.05
2018-06-20T11:17:22.956Z,31.46
2018-06-20T11:18:22.971Z,31.58
2018-06-20T11:19:22.991Z,31.13
2018-06-20T11:20:23.009Z,30.98
2018-06-20T11:21:23.028Z,30.61
2018-06-20T11:22:23.044Z,30.30
2018-06-20T11:23:23.155Z,30.98
2018-06-20T11:24:23.080Z,30.76
2018-06-20T11:25:23.091Z,30.45
2018-06-20T11:26:23.115Z,30.94
2018-06-20T11:27:23.134Z,30.40
2018-06-20T11:28:23.149Z,31.15
2018-06-20T11:29:23.202Z,31.31
2018-06-20T11:30:23.175Z,30.94
2018-06-20T11:31:23.195Z,30.99
2018-06-20T11:32:23.216Z,31.20
2018-06-20T11:33:23.230Z,31.43
2018-06-20T11:34:23.248Z,31.50
2018-06-20T11:35:23.269Z,32.05
2018-06-20T11:36:23.285Z,31.60
2018-06-20T11:37:23.301Z,31.72
2018-06-20T11:38:23.317Z,31.33
2018-06-20T11:39:23.343Z,30.52
2018-06-20T11:40:23.358Z,30.80
2018-06-20T11:41:23.376Z,31.57
2018-06-20T11:42:23.387Z,31.68
2018-06-20T11:43:23.402Z,32.57
2018-06-20T11:44:23.423Z,32.86
2018-06-20T11:45:23.439Z,32.67
2018-06-20T11:46:23.469Z,32.61
2018-06-20T11:47:23.475Z,31.55
2018-06-20T11:48:23.494Z,31.43
2018-06-20T11:49:23.528Z,31.02
2018-06-20T11:50:23.544Z,30.52
2018-06-20T11:51:23.545Z,30.94
2018-06-20T11:52:23.570Z,31.05
2018-06-20T11:53:23.595Z,31.70
2018-06-20T11:54:23.599Z,31.23
2018-06-20T11:55:23.614Z,31.72
2018-06-20T11:56:23.634Z,31.26
2018-06-20T11:57:23.650Z,31.58
2018-06-20T11:58:23.668Z,32.15
2018-06-20T11:59:23.684Z,31.95
2018-06-20T12:00:23.702Z,31.75
2018-06-20T12:01:27.830Z,31.58
2018-06-20T12:02:23.743Z,32.02
2018-06-20T12:03:23.754Z,31.36
2018-06-20T12:04:23.773Z,30.84
2018-06-20T12:05:23.788Z,30.59
2018-06-20T12:06:23.808Z,30.56
2018-06-20T12:07:23.825Z,30.53
2018-06-20T12:08:23.846Z,31.33
2018-06-20T12:09:23.862Z,31.76
2018-06-20T12:10:23.877Z,31.09
2018-06-20T12:11:23.893Z,31.38
2018-06-20T12:12:23.910Z,31.23
2018-06-20T12:13:23.936Z,31.30
2018-06-20T12:14:23.950Z,31.36
2018-06-20T12:15:23.963Z,31.58
2018-06-20T12:16:23.979Z,31.60
2018-06-20T12:17:23.996Z,32.17
2018-06-20T12:18:24.015Z,32.10
2018-06-20T12:19:24.030Z,31.70
2018-06-20T12:20:24.048Z,31.91
2018-06-20T12:21:24.069Z,32.48
2018-06-20T12:22:24.079Z,32.43
2018-06-20T12:23:24.094Z,32.77
2018-06-20T12:24:24.118Z,33.68
2018-06-20T12:25:24.136Z,34.41
2018-06-20T12:26:24.149Z,34.48
2018-06-20T12:27:24.163Z,33.60
2018-06-20T12:28:24.311Z,33.48
2018-06-20T12:29:24.226Z,32.76
2018-06-20T12:30:24.214Z,32.70
2018-06-20T12:31:24.237Z,32.03
2018-06-20T12:32:24.251Z,31.54
2018-06-20T12:33:24.271Z,31.23
2018-06-20T12:34:24.277Z,30.74
2018-06-20T12:35:24.310Z,30.53
2018-06-20T12:36:24.321Z,30.03
2018-06-20T12:37:24.346Z,30.15
2018-06-20T12:38:24.353Z,30.15
2018-06-20T12:39:24.369Z,29.94
2018-06-20T12:40:24.386Z,29.74
2018-06-20T12:41:24.406Z,29.60
2018-06-20T12:42:24.423Z,29.31
2018-06-20T12:43:24.432Z,29.18
2018-06-20T12:44:24.445Z,28.91
2018-06-20T12:45:24.456Z,28.82
2018-06-20T12:46:24.470Z,28.69
2018-06-20T12:47:24.481Z,28.90
2018-06-20T12:48:24.496Z,29.16
2018-06-20T12:49:24.516Z,29.20
2018-06-20T12:50:24.515Z,29.23
2018-06-20T12:51:24.525Z,29.29
2018-06-20T12:52:24.547Z,29.35
2018-06-20T12:53:24.549Z,29.38
2018-06-20T12:54:24.552Z,29.22
2018-06-20T12:55:24.570Z,29.01
2018-06-20T12:56:24.568Z,29.03
2018-06-20T12:57:24.587Z,29.25
2018-06-20T12:58:24.614Z,29.03
2018-06-20T12:59:24.589Z,28.72
2018-06-20T13:00:24.600Z,28.72
2018-06-20T13:01:24.610Z,28.58
2018-06-20T13:02:24.619Z,28.72
2018-06-20T13:03:24.625Z,28.50
2018-06-20T13:04:24.632Z,28.43
2018-06-20T13:05:24.638Z,28.58
2018-06-20T13:06:24.642Z,28.60
2018-06-20T13:07:24.656Z,28.56
2018-06-20T13:08:24.678Z,28.68
2018-06-20T13:09:24.657Z,28.66
2018-06-20T13:10:24.676Z,28.69
2018-06-20T13:11:24.670Z,28.81
2018-06-20T13:12:24.696Z,28.75
2018-06-20T13:13:24.683Z,28.68
2018-06-20T13:14:24.689Z,28.68
2018-06-20T13:15:24.694Z,28.65
2018-06-20T13:16:24.702Z,28.54
2018-06-20T13:17:24.705Z,28.56
2018-06-20T13:18:24.708Z,28.56
2018-06-20T13:19:24.711Z,28.25
2018-06-20T13:20:24.717Z,28.25
2018-06-20T13:21:24.787Z,28.17
2018-06-20T13:22:24.732Z,28.10
2018-06-20T13:23:24.730Z,28.32
2018-06-20T13:24:24.736Z,28.46
2018-06-20T13:25:24.743Z,28.36
2018-06-20T13:26:24.745Z,28.36
2018-06-20T13:27:24.751Z,28.32